createdAt,value
2023-05-20T00:00:35.159Z,1.53
2023-05-20T00:03:01.634Z,1.53
2023-05-20T00:05:28.039Z,1.93
2023-05-20T00:07:54.610Z,1.70
2023-05-20T00:10:21.038Z,1.80
2023-05-20T00:12:47.400Z,1.73
2023-05-20T00:15:13.976Z,1.80
2023-05-20T00:17:40.483Z,1.87
2023-05-20T00:20:08.198Z,1.90
2023-05-20T00:22:34.631Z,1.83
2023-05-20T00:25:01.138Z,1.40
2023-05-20T00:27:27.576Z,2.00
2023-05-20T00:29:54.115Z,1.77
2023-05-20T00:32:20.550Z,2.03
2023-05-20T00:34:57.143Z,1.80
2023-05-20T00:37:24.137Z,1.73
2023-05-20T00:39:50.642Z,1.90
2023-05-20T00:42:27.853Z,1.40
2023-05-20T00:44:55.965Z,1.70
2023-05-20T00:47:32.486Z,1.60
2023-05-20T00:50:00.306Z,1.70
2023-05-20T00:52:30.492Z,1.73
2023-05-20T00:54:58.508Z,1.90
2023-05-20T00:57:25.277Z,1.87
2023-05-20T00:59:51.937Z,1.50
2023-05-20T01:02:19.149Z,1.60
2023-05-20T01:04:47.342Z,1.70
2023-05-20T01:07:16.411Z,1.50
2023-05-20T01:09:43.255Z,1.77
2023-05-20T01:12:21.558Z,1.60
2023-05-20T01:14:50.948Z,1.73
2023-05-20T01:17:20.925Z,1.60
2023-05-20T01:19:49.076Z,1.83
2023-05-20T01:22:16.219Z,1.80
2023-05-20T01:24:44.744Z,1.40
2023-05-20T01:27:13.635Z,1.73
2023-05-20T01:29:41.545Z,1.60
2023-05-20T01:32:12.376Z,1.67
2023-05-20T01:34:41.528Z,1.37
2023-05-20T01:37:09.040Z,1.80
2023-05-20T01:39:38.312Z,1.87
2023-05-20T01:42:06.299Z,1.57
2023-05-20T01:44:33.498Z,1.97
2023-05-20T01:47:01.484Z,1.60
2023-05-20T01:49:28.274Z,1.70
2023-05-20T01:51:55.135Z,1.80
2023-05-20T01:54:21.833Z,1.60
2023-05-20T01:56:48.399Z,1.63
2023-05-20T01:59:14.840Z,1.50
2023-05-20T02:01:41.343Z,1.90
2023-05-20T02:04:07.833Z,1.73
2023-05-20T02:06:34.251Z,1.80
2023-05-20T02:09:00.796Z,1.70
2023-05-20T02:11:27.437Z,1.90
2023-05-20T02:13:53.886Z,1.50
2023-05-20T02:16:20.348Z,1.70
2023-05-20T02:18:46.913Z,1.60
2023-05-20T02:21:13.433Z,1.33
2023-05-20T02:23:39.852Z,1.70
2023-05-20T02:26:06.558Z,2.73
2023-05-20T02:28:33.530Z,1.43
2023-05-20T02:30:59.947Z,2.00
2023-05-20T02:33:29.042Z,1.83
2023-05-20T02:35:55.628Z,1.80
2023-05-20T02:38:22.051Z,1.87
2023-05-20T02:40:48.447Z,1.80
2023-05-20T02:43:14.812Z,2.17
2023-05-20T02:45:41.388Z,1.80
2023-05-20T02:48:08.031Z,1.90
2023-05-20T02:50:34.454Z,1.70
2023-05-20T02:53:00.979Z,2.37
2023-05-20T02:55:28.406Z,1.90
2023-05-20T02:57:54.941Z,1.97
2023-05-20T03:00:23.156Z,2.20
2023-05-20T03:02:49.643Z,1.80
2023-05-20T03:05:16.105Z,1.93
2023-05-20T03:07:42.556Z,2.00
2023-05-20T03:10:10.685Z,1.93
2023-05-20T03:12:37.121Z,2.17
2023-05-20T03:15:03.828Z,1.77
2023-05-20T03:17:30.473Z,1.80
2023-05-20T03:19:56.902Z,1.60
2023-05-20T03:22:23.385Z,2.10
2023-05-20T03:24:49.875Z,1.97
2023-05-20T03:27:16.294Z,2.10
2023-05-20T03:29:42.631Z,2.13
2023-05-20T03:32:10.870Z,1.93
2023-05-20T03:34:38.163Z,1.90
2023-05-20T03:37:04.735Z,1.93
2023-05-20T03:39:31.190Z,2.17
2023-05-20T03:41:57.608Z,2.33
2023-05-20T03:44:24.015Z,1.97
2023-05-20T03:46:50.784Z,2.37
2023-05-20T03:49:17.163Z,2.30
2023-05-20T03:51:43.547Z,2.00
2023-05-20T03:54:10.027Z,2.10
2023-05-20T03:56:36.563Z,2.10
2023-05-20T03:59:02.948Z,2.20
2023-05-20T04:01:29.466Z,2.43
2023-05-20T04:03:56.027Z,2.00
2023-05-20T04:06:22.608Z,1.90
2023-05-20T04:08:50.226Z,1.90
2023-05-20T04:11:17.083Z,2.27
2023-05-20T04:13:43.503Z,1.87
2023-05-20T04:16:10.066Z,1.93
2023-05-20T04:18:39.156Z,2.20
2023-05-20T04:21:05.797Z,2.00
2023-05-20T04:23:33.045Z,2.10
2023-05-20T04:26:02.245Z,2.20
2023-05-20T04:28:31.271Z,2.63
2023-05-20T04:31:04.618Z,1.83
2023-05-20T04:33:32.782Z,2.20
2023-05-20T04:35:59.678Z,2.00
2023-05-20T04:38:30.267Z,2.07
2023-05-20T04:40:58.018Z,2.20
2023-05-20T04:43:25.888Z,2.43
2023-05-20T04:45:55.608Z,2.13
2023-05-20T04:48:22.517Z,2.10
2023-05-20T04:50:49.725Z,2.10
2023-05-20T04:53:17.585Z,2.33
2023-05-20T04:55:45.270Z,2.30
2023-05-20T04:58:15.263Z,2.23
2023-05-20T05:00:42.493Z,2.87
2023-05-20T05:03:09.995Z,2.63
2023-05-20T05:05:39.361Z,2.40
2023-05-20T05:08:06.870Z,2.60
2023-05-20T05:10:33.510Z,2.50
2023-05-20T05:13:00.034Z,2.57
2023-05-20T05:15:27.236Z,2.73
2023-05-20T05:17:53.931Z,2.80
2023-05-20T05:20:20.449Z,2.70
2023-05-20T05:22:47.238Z,2.57
2023-05-20T05:25:14.009Z,2.63
2023-05-20T05:27:40.700Z,2.90
2023-05-20T05:30:08.094Z,2.90
2023-05-20T05:32:35.074Z,2.87
2023-05-20T05:35:01.618Z,2.47
2023-05-20T05:37:28.081Z,3.00
2023-05-20T05:39:54.523Z,2.30
2023-05-20T05:42:22.056Z,2.60
2023-05-20T05:44:48.992Z,2.83
2023-05-20T05:47:15.937Z,2.60
2023-05-20T05:49:42.398Z,2.53
2023-05-20T05:52:08.904Z,2.33
2023-05-20T05:54:35.365Z,2.20
2023-05-20T05:57:01.744Z,2.17
2023-05-20T05:59:28.152Z,2.53
2023-05-20T06:01:54.627Z,2.60
2023-05-20T06:04:21.086Z,2.77
2023-05-20T06:06:48.466Z,2.92
2023-05-20T06:09:15.123Z,2.93
2023-05-20T06:11:42.297Z,3.13
2023-05-20T06:14:08.816Z,2.53
2023-05-20T06:16:35.208Z,3.03
2023-05-20T06:19:03.478Z,3.10
2023-05-20T06:21:31.618Z,2.70
2023-05-20T06:23:58.041Z,3.27
2023-05-20T06:26:24.454Z,2.73
2023-05-20T06:28:51.265Z,2.63
2023-05-20T06:31:17.886Z,3.10
2023-05-20T06:33:44.373Z,2.93
2023-05-20T06:36:11.479Z,2.70
2023-05-20T06:38:38.412Z,2.77
2023-05-20T06:41:04.866Z,2.37
2023-05-20T06:43:32.585Z,2.70
2023-05-20T06:45:59.010Z,2.53
2023-05-20T06:48:25.512Z,2.83
2023-05-20T06:50:52.125Z,2.67
2023-05-20T06:53:18.637Z,2.73
2023-05-20T06:55:44.997Z,2.80
2023-05-20T06:58:11.423Z,3.10
2023-05-20T07:00:37.891Z,2.80
2023-05-20T07:03:04.364Z,2.70
2023-05-20T07:05:32.195Z,2.90
2023-05-20T07:07:58.762Z,2.80
2023-05-20T07:10:25.164Z,2.53
2023-05-20T07:12:51.725Z,2.90
2023-05-20T07:15:18.200Z,2.70
2023-05-20T07:17:44.615Z,3.03
2023-05-20T07:20:11.315Z,2.63
2023-05-20T07:22:37.745Z,2.67
2023-05-20T07:25:04.446Z,2.73
2023-05-20T07:27:30.949Z,3.43
2023-05-20T07:29:57.323Z,3.03
2023-05-20T07:32:23.725Z,3.03
2023-05-20T07:34:50.352Z,2.90
2023-05-20T07:37:16.732Z,2.73
2023-05-20T07:39:43.141Z,2.70
2023-05-20T07:42:09.873Z,3.13
2023-05-20T07:44:36.453Z,2.70
2023-05-20T07:47:03.322Z,2.50
2023-05-20T07:49:30.014Z,2.97
2023-05-20T07:51:56.377Z,3.27
2023-05-20T07:54:23.362Z,2.60
2023-05-20T07:56:49.858Z,3.13
2023-05-20T07:59:16.336Z,3.23
2023-05-20T08:01:43.127Z,2.87
2023-05-20T08:04:09.767Z,3.00
2023-05-20T08:06:36.396Z,2.93
2023-05-20T08:09:03.031Z,2.67
2023-05-20T08:11:29.510Z,2.80
2023-05-20T08:13:56.044Z,3.00
2023-05-20T08:16:22.495Z,2.93
2023-05-20T08:18:49.102Z,3.23
2023-05-20T08:21:15.784Z,2.87
2023-05-20T08:23:42.206Z,3.07
2023-05-20T08:26:08.750Z,2.50
2023-05-20T08:28:37.932Z,2.67
2023-05-20T08:31:04.434Z,3.17
2023-05-20T08:33:31.019Z,3.20
2023-05-20T08:35:57.388Z,3.30
2023-05-20T08:38:23.790Z,3.07
2023-05-20T08:40:57.401Z,3.23
2023-05-20T08:43:25.247Z,3.03
2023-05-20T08:45:52.711Z,2.80
2023-05-20T08:48:20.357Z,3.03
2023-05-20T08:50:52.106Z,2.70
2023-05-20T08:53:20.636Z,2.87
2023-05-20T08:55:53.528Z,2.67
2023-05-20T08:58:20.916Z,2.93
2023-05-20T09:00:47.542Z,2.90
2023-05-20T09:03:14.397Z,2.80
2023-05-20T09:05:40.993Z,3.00
2023-05-20T09:08:09.711Z,3.00
2023-05-20T09:10:39.647Z,2.70
2023-05-20T09:13:07.349Z,2.67
2023-05-20T09:15:35.669Z,2.90
2023-05-20T09:18:04.524Z,2.63
2023-05-20T09:20:32.427Z,2.80
2023-05-20T09:23:05.313Z,2.83
2023-05-20T09:25:32.386Z,3.00
2023-05-20T09:27:59.209Z,3.10
2023-05-20T09:30:25.770Z,3.00
2023-05-20T09:32:57.123Z,3.17
2023-05-20T09:35:24.577Z,2.67
2023-05-20T09:37:56.074Z,2.67
2023-05-20T09:40:29.326Z,2.80
2023-05-20T09:43:04.456Z,2.67
2023-05-20T09:45:31.209Z,2.60
2023-05-20T09:47:58.111Z,2.57
2023-05-20T09:50:25.642Z,2.67
2023-05-20T09:52:53.071Z,2.70
2023-05-20T09:55:21.743Z,2.60
2023-05-20T09:57:48.220Z,3.07
2023-05-20T10:00:19.784Z,2.40
2023-05-20T10:02:48.864Z,2.70
2023-05-20T10:05:24.378Z,2.70
2023-05-20T10:08:09.608Z,2.67
2023-05-20T10:10:51.049Z,2.77
2023-05-20T10:13:49.216Z,2.87
2023-05-20T10:16:24.392Z,2.87
2023-05-20T10:19:23.328Z,2.73
2023-05-20T10:22:01.249Z,2.43
2023-05-20T10:24:41.125Z,2.67
2023-05-20T10:27:10.274Z,2.70
2023-05-20T10:29:56.156Z,2.80
2023-05-20T10:32:29.508Z,3.00
2023-05-20T10:35:05.071Z,2.90
2023-05-20T10:37:34.141Z,2.70
2023-05-20T10:40:16.187Z,3.00
2023-05-20T10:42:43.240Z,3.10
2023-05-20T10:45:10.200Z,3.10
2023-05-20T10:47:37.240Z,2.70
2023-05-20T10:50:07.517Z,3.10
2023-05-20T10:52:36.703Z,3.40
2023-05-20T10:55:04.937Z,3.03
2023-05-20T10:57:32.318Z,2.50
2023-05-20T10:59:59.650Z,3.27
2023-05-20T11:02:28.275Z,3.30
2023-05-20T11:05:00.766Z,3.00
2023-05-20T11:07:29.042Z,3.27
2023-05-20T11:09:56.499Z,3.57
2023-05-20T11:12:24.764Z,3.27
2023-05-20T11:14:51.717Z,3.27
2023-05-20T11:17:20.091Z,2.97
2023-05-20T11:19:47.965Z,3.30
2023-05-20T11:22:14.589Z,3.30
2023-05-20T11:24:41.588Z,3.03
2023-05-20T11:27:08.363Z,3.70
2023-05-20T11:29:35.178Z,3.43
2023-05-20T11:32:01.926Z,3.20
2023-05-20T11:34:39.300Z,3.40
2023-05-20T11:37:10.035Z,3.20
2023-05-20T11:39:37.170Z,3.27
2023-05-20T11:42:03.959Z,3.30
2023-05-20T11:44:30.621Z,3.20
2023-05-20T11:47:03.786Z,3.87
2023-05-20T11:49:31.069Z,3.07
2023-05-20T11:51:57.756Z,3.77
2023-05-20T11:54:24.764Z,3.87
2023-05-20T11:56:51.463Z,3.60
2023-05-20T11:59:18.457Z,3.13
2023-05-20T12:01:45.717Z,3.60
2023-05-20T12:04:16.412Z,3.37
2023-05-20T12:06:44.012Z,3.63
2023-05-20T12:09:11.033Z,3.63
2023-05-20T12:11:41.123Z,3.07
2023-05-20T12:14:08.521Z,3.40
2023-05-20T12:16:35.878Z,3.60
2023-05-20T12:19:03.575Z,3.30
2023-05-20T12:21:31.234Z,4.00
2023-05-20T12:23:59.454Z,3.47
2023-05-20T12:26:27.376Z,3.40
2023-05-20T12:28:54.474Z,3.50
2023-05-20T12:31:21.009Z,3.67
2023-05-20T12:33:47.778Z,3.97
2023-05-20T12:36:14.703Z,3.63
2023-05-20T12:38:41.335Z,3.70
2023-05-20T12:41:07.968Z,3.80
2023-05-20T12:43:36.962Z,3.50
2023-05-20T12:46:03.806Z,3.43
2023-05-20T12:48:30.322Z,3.67
2023-05-20T12:50:56.729Z,3.17
2023-05-20T12:53:23.104Z,3.80
2023-05-20T12:55:49.629Z,3.53
2023-05-20T12:58:16.066Z,3.37
2023-05-20T13:00:43.531Z,3.20
2023-05-20T13:03:10.089Z,3.37
2023-05-20T13:05:36.644Z,3.20
2023-05-20T13:08:03.269Z,3.53
2023-05-20T13:10:29.712Z,3.70
2023-05-20T13:12:56.319Z,3.50
2023-05-20T13:15:22.754Z,3.50
2023-05-20T13:17:49.211Z,3.50
2023-05-20T13:20:16.784Z,3.20
2023-05-20T13:22:44.788Z,3.70
2023-05-20T13:25:11.229Z,3.90
2023-05-20T13:27:37.616Z,3.50
2023-05-20T13:30:06.222Z,4.13
2023-05-20T13:32:32.708Z,3.78
2023-05-20T13:34:59.742Z,3.70
2023-05-20T13:37:26.495Z,3.78
2023-05-20T13:39:53.073Z,3.67
2023-05-20T13:42:19.549Z,3.27
2023-05-20T13:44:46.734Z,3.43
2023-05-20T13:47:13.128Z,3.50
2023-05-20T13:49:39.554Z,3.73
2023-05-20T13:52:06.270Z,3.17
2023-05-20T13:54:32.710Z,3.47
2023-05-20T13:56:59.461Z,2.90
2023-05-20T13:59:25.989Z,3.17
2023-05-20T14:01:53.681Z,3.30
2023-05-20T14:04:20.210Z,3.35
2023-05-20T14:06:46.695Z,3.47
2023-05-20T14:09:13.107Z,3.20
2023-05-20T14:11:39.524Z,3.60
2023-05-20T14:14:06.423Z,3.87
2023-05-20T14:16:33.128Z,3.30
2023-05-20T14:18:59.815Z,3.80
2023-05-20T14:21:26.339Z,3.10
2023-05-20T14:23:53.537Z,3.63
2023-05-20T14:26:20.014Z,3.30
2023-05-20T14:28:46.445Z,3.17
2023-05-20T14:31:12.939Z,3.07
2023-05-20T14:33:39.300Z,3.50
2023-05-20T14:36:05.980Z,3.27
2023-05-20T14:38:32.733Z,3.47
2023-05-20T14:40:59.245Z,3.50
2023-05-20T14:43:25.858Z,3.33
2023-05-20T14:45:52.749Z,3.20
2023-05-20T14:48:19.184Z,3.23
2023-05-20T14:50:46.430Z,3.53
2023-05-20T14:53:13.639Z,3.37
2023-05-20T14:55:40.027Z,3.33
2023-05-20T14:58:06.681Z,3.30
2023-05-20T15:00:33.782Z,3.63
2023-05-20T15:03:00.561Z,3.40
2023-05-20T15:05:27.043Z,3.30
2023-05-20T15:07:53.630Z,3.00
2023-05-20T15:10:20.039Z,3.07
2023-05-20T15:12:47.552Z,3.17
2023-05-20T15:15:14.070Z,2.73
2023-05-20T15:17:40.776Z,2.73
2023-05-20T15:20:08.129Z,3.30
2023-05-20T15:22:34.717Z,3.23
2023-05-20T15:25:01.430Z,3.10
2023-05-20T15:27:27.932Z,3.00
2023-05-20T15:29:54.322Z,3.10
2023-05-20T15:32:20.838Z,3.10
2023-05-20T15:34:47.387Z,3.00
2023-05-20T15:37:14.064Z,2.93
2023-05-20T15:39:40.487Z,3.07
2023-05-20T15:42:07.050Z,2.87
2023-05-20T15:44:35.218Z,3.10
2023-05-20T15:47:02.378Z,3.07
2023-05-20T15:49:28.962Z,3.20
2023-05-20T15:52:02.239Z,3.17
2023-05-20T15:54:30.613Z,3.07
2023-05-20T15:56:57.823Z,3.43
2023-05-20T15:59:24.355Z,3.37
2023-05-20T16:01:51.011Z,3.23
2023-05-20T16:04:17.650Z,3.33
2023-05-20T16:06:44.220Z,4.03
2023-05-20T16:09:10.744Z,3.93
2023-05-20T16:11:37.181Z,3.23
2023-05-20T16:14:03.558Z,3.60
2023-05-20T16:16:30.186Z,3.27
2023-05-20T16:18:56.663Z,3.53
2023-05-20T16:21:24.949Z,3.60
2023-05-20T16:23:52.890Z,4.10
2023-05-20T16:26:19.477Z,3.93
2023-05-20T16:28:46.139Z,3.63
2023-05-20T16:31:12.700Z,3.50
2023-05-20T16:33:39.200Z,3.43
2023-05-20T16:36:06.252Z,3.63
2023-05-20T16:38:34.353Z,3.70
2023-05-20T16:41:01.535Z,3.70
2023-05-20T16:43:28.039Z,4.57
2023-05-20T16:45:54.467Z,3.37
2023-05-20T16:48:21.284Z,3.40
2023-05-20T16:50:47.708Z,3.47
2023-05-20T16:53:16.220Z,3.60
2023-05-20T16:55:42.863Z,3.10
2023-05-20T16:58:09.459Z,3.53
2023-05-20T17:00:35.923Z,3.53
2023-05-20T17:03:02.470Z,4.07
2023-05-20T17:05:28.958Z,3.07
2023-05-20T17:07:58.913Z,3.63
2023-05-20T17:10:25.692Z,3.20
2023-05-20T17:12:52.127Z,3.63
2023-05-20T17:15:18.475Z,3.40
2023-05-20T17:17:44.860Z,4.03
2023-05-20T17:20:11.874Z,4.03
2023-05-20T17:22:38.226Z,4.10
2023-05-20T17:25:05.097Z,3.67
2023-05-20T17:27:33.127Z,4.13
2023-05-20T17:29:59.681Z,3.53
2023-05-20T17:32:26.291Z,3.77
2023-05-20T17:34:52.895Z,3.57
2023-05-20T17:37:19.366Z,3.80
2023-05-20T17:39:45.985Z,3.30
2023-05-20T17:42:12.536Z,4.00
2023-05-20T17:44:38.984Z,3.30
2023-05-20T17:47:05.343Z,3.60
2023-05-20T17:49:31.866Z,3.60
2023-05-20T17:51:58.237Z,4.60
2023-05-20T17:54:24.590Z,4.60
2023-05-20T17:56:51.332Z,3.87
2023-05-20T17:59:17.860Z,3.40
2023-05-20T18:01:44.761Z,3.50
2023-05-20T18:04:11.469Z,4.60
2023-05-20T18:06:37.961Z,3.43
2023-05-20T18:09:05.833Z,4.23
2023-05-20T18:11:33.446Z,4.33
2023-05-20T18:14:00.444Z,4.17
2023-05-20T18:16:28.400Z,4.10
2023-05-20T18:18:55.580Z,3.70
2023-05-20T18:21:23.060Z,4.50
2023-05-20T18:23:50.569Z,4.47
2023-05-20T18:26:17.154Z,3.97
2023-05-20T18:28:43.635Z,3.87
2023-05-20T18:31:10.106Z,4.10
2023-05-20T18:33:37.092Z,4.40
2023-05-20T18:36:05.665Z,4.17
2023-05-20T18:38:32.240Z,4.17
2023-05-20T18:40:59.516Z,4.07
2023-05-20T18:43:26.518Z,4.53
2023-05-20T18:45:53.184Z,4.20
2023-05-20T18:48:26.174Z,5.63
2023-05-20T18:50:53.706Z,4.50
2023-05-20T18:53:20.124Z,4.60
2023-05-20T18:55:47.302Z,4.70
2023-05-20T18:58:14.614Z,4.50
2023-05-20T19:00:41.600Z,4.43
2023-05-20T19:03:08.110Z,4.70
2023-05-20T19:05:34.840Z,4.60
2023-05-20T19:08:02.493Z,4.87
2023-05-20T19:10:29.482Z,4.80
2023-05-20T19:12:56.635Z,4.83
2023-05-20T19:15:23.054Z,4.70
2023-05-20T19:17:49.557Z,4.37
2023-05-20T19:20:16.283Z,4.87
2023-05-20T19:22:42.713Z,4.70
2023-05-20T19:25:09.409Z,4.93
2023-05-20T19:27:36.246Z,4.70
2023-05-20T19:30:02.750Z,4.47
2023-05-20T19:32:29.247Z,4.83
2023-05-20T19:34:55.875Z,4.90
2023-05-20T19:37:23.249Z,5.17
2023-05-20T19:39:49.925Z,4.77
2023-05-20T19:42:16.561Z,5.27
2023-05-20T19:44:42.991Z,4.87
2023-05-20T19:47:09.455Z,5.33
2023-05-20T19:49:36.333Z,4.70
2023-05-20T19:52:03.031Z,5.17
2023-05-20T19:54:29.532Z,4.90
2023-05-20T19:56:56.009Z,4.50
2023-05-20T19:59:22.352Z,5.13
2023-05-20T20:01:48.869Z,4.77
2023-05-20T20:04:17.206Z,5.20
2023-05-20T20:06:44.083Z,4.80
2023-05-20T20:09:10.961Z,5.07
2023-05-20T20:11:37.824Z,4.90
2023-05-20T20:14:04.215Z,4.87
2023-05-20T20:16:30.710Z,5.20
2023-05-20T20:18:57.289Z,4.60
2023-05-20T20:21:25.841Z,5.07
2023-05-20T20:23:52.991Z,5.07
2023-05-20T20:26:22.693Z,5.20
2023-05-20T20:28:49.154Z,5.50
2023-05-20T20:31:15.665Z,5.63
2023-05-20T20:33:42.137Z,5.03
2023-05-20T20:36:09.249Z,5.50
2023-05-20T20:38:37.483Z,5.78
2023-05-20T20:41:04.099Z,5.90
2023-05-20T20:43:30.565Z,5.53
2023-05-20T20:45:57.104Z,5.70
2023-05-20T20:48:26.931Z,6.27
2023-05-20T20:50:53.567Z,6.10
2023-05-20T20:53:19.998Z,6.60
2023-05-20T20:55:46.400Z,5.70
2023-05-20T20:58:14.928Z,6.63
2023-05-20T21:00:41.654Z,5.90
2023-05-20T21:03:08.550Z,6.37
2023-05-20T21:05:38.949Z,5.80
2023-05-20T21:08:08.123Z,6.17
2023-05-20T21:10:36.956Z,7.00
2023-05-20T21:13:03.821Z,6.60
2023-05-20T21:15:30.255Z,6.20
2023-05-20T21:17:56.697Z,7.10
2023-05-20T21:20:23.209Z,6.90
2023-05-20T21:22:49.643Z,7.43
2023-05-20T21:25:16.271Z,7.30
2023-05-20T21:27:42.869Z,6.80
2023-05-20T21:30:10.757Z,7.30
2023-05-20T21:32:37.648Z,7.03
2023-05-20T21:35:04.666Z,6.73
2023-05-20T21:37:31.061Z,7.17
2023-05-20T21:39:57.496Z,7.50
2023-05-20T21:42:23.945Z,7.20
2023-05-20T21:44:50.356Z,7.63
2023-05-20T21:47:16.829Z,7.37
2023-05-20T21:49:43.328Z,7.37
2023-05-20T21:52:09.782Z,7.03
2023-05-20T21:54:36.332Z,7.47
2023-05-20T21:57:02.899Z,7.57
2023-05-20T21:59:29.316Z,6.80
2023-05-20T22:01:57.944Z,6.87
2023-05-20T22:04:25.008Z,7.17
2023-05-20T22:06:51.583Z,6.90
2023-05-20T22:09:18.294Z,7.60
2023-05-20T22:11:45.126Z,6.70
2023-05-20T22:14:15.942Z,6.70
2023-05-20T22:16:46.491Z,7.40
2023-05-20T22:19:15.190Z,7.30
2023-05-20T22:21:50.266Z,6.53
2023-05-20T22:24:17.935Z,6.67
2023-05-20T22:26:44.685Z,7.10
2023-05-20T22:29:11.129Z,7.57
2023-05-20T22:31:38.049Z,7.13
2023-05-20T22:34:05.350Z,7.50
2023-05-20T22:36:34.155Z,6.60
2023-05-20T22:39:04.857Z,7.40
2023-05-20T22:41:31.438Z,7.40
2023-05-20T22:43:58.239Z,7.90
2023-05-20T22:46:25.469Z,7.40
2023-05-20T22:48:55.408Z,7.90
2023-05-20T22:51:22.687Z,8.33
2023-05-20T22:53:49.410Z,8.57
2023-05-20T22:56:16.204Z,8.37
2023-05-20T22:58:43.564Z,8.43
2023-05-20T23:01:10.579Z,8.43
2023-05-20T23:03:37.794Z,8.23
2023-05-20T23:06:04.355Z,8.53
2023-05-20T23:08:30.861Z,8.50
2023-05-20T23:10:57.296Z,8.60
2023-05-20T23:13:23.690Z,8.50
2023-05-20T23:15:50.380Z,8.30
2023-05-20T23:18:17.711Z,8.30
2023-05-20T23:20:44.894Z,8.77
2023-05-20T23:23:11.919Z,9.23
2023-05-20T23:25:38.794Z,8.77
2023-05-20T23:28:05.972Z,8.03
2023-05-20T23:30:32.380Z,8.50
2023-05-20T23:32:58.891Z,9.07
2023-05-20T23:35:25.656Z,8.80
2023-05-20T23:37:52.314Z,8.20
2023-05-20T23:40:19.165Z,8.80
2023-05-20T23:42:45.674Z,8.47
2023-05-20T23:45:12.289Z,8.63
2023-05-20T23:47:38.750Z,8.70
2023-05-20T23:50:05.646Z,8.87
2023-05-20T23:52:32.169Z,9.20
2023-05-20T23:54:59.861Z,8.90
2023-05-20T23:57:26.268Z,9.83
2023-05-20T23:59:52.816Z,9.43
